createdAt,value
2022-11-09T00:01:03.514Z,57.23
2022-11-09T00:03:30.956Z,47.07
2022-11-09T00:06:00.039Z,54.27
2022-11-09T00:08:28.024Z,51.17
2022-11-09T00:10:55.674Z,59.33
2022-11-09T00:13:23.467Z,50.67
2022-11-09T00:15:51.323Z,53.97
2022-11-09T00:18:18.760Z,56.57
2022-11-09T00:20:48.321Z,61.73
2022-11-09T00:23:17.544Z,55.60
2022-11-09T00:25:45.665Z,52.23
2022-11-09T00:28:13.152Z,53.37
2022-11-09T00:30:41.495Z,54.97
2022-11-09T00:33:12.357Z,48.63
2022-11-09T00:35:44.058Z,59.23
2022-11-09T00:38:11.402Z,52.23
2022-11-09T00:40:39.262Z,66.33
2022-11-09T00:43:06.465Z,54.37
2022-11-09T00:45:34.214Z,52.37
2022-11-09T00:48:02.112Z,55.27
2022-11-09T00:50:30.397Z,53.23
2022-11-09T00:52:57.919Z,51.77
2022-11-09T00:55:26.709Z,48.03
2022-11-09T00:57:54.749Z,52.60
2022-11-09T01:00:24.631Z,58.37
2022-11-09T01:02:53.406Z,51.57
2022-11-09T01:05:21.131Z,47.63
2022-11-09T01:07:50.001Z,56.60
2022-11-09T01:10:17.649Z,59.67
2022-11-09T01:12:47.059Z,47.70
2022-11-09T01:15:15.949Z,48.23
2022-11-09T01:17:43.286Z,47.00
2022-11-09T01:20:11.637Z,52.13
2022-11-09T01:22:38.931Z,49.77
2022-11-09T01:25:07.402Z,48.17
2022-11-09T01:27:35.163Z,54.17
2022-11-09T01:30:06.731Z,49.40
2022-11-09T01:32:34.072Z,44.90
2022-11-09T01:35:01.718Z,47.87
2022-11-09T01:37:31.228Z,45.43
2022-11-09T01:39:58.801Z,48.60
2022-11-09T01:42:26.625Z,49.93
2022-11-09T01:45:23.711Z,44.63
2022-11-09T01:48:06.636Z,48.67
2022-11-09T01:50:48.323Z,55.97
2022-11-09T01:53:24.057Z,45.07
2022-11-09T01:55:54.577Z,50.37
2022-11-09T01:58:30.668Z,45.87
2022-11-09T02:01:00.881Z,47.10
2022-11-09T02:03:35.492Z,44.27
2022-11-09T02:06:08.970Z,40.73
2022-11-09T02:08:36.611Z,44.50
2022-11-09T02:11:16.484Z,48.43
2022-11-09T02:13:48.273Z,41.93
2022-11-09T02:16:16.454Z,45.10
2022-11-09T02:18:58.268Z,45.00
2022-11-09T02:21:28.026Z,48.27
2022-11-09T02:23:55.905Z,39.43
2022-11-09T02:26:38.863Z,43.10
2022-11-09T02:29:09.078Z,45.63
2022-11-09T02:31:42.452Z,40.97
2022-11-09T02:34:13.628Z,48.13
2022-11-09T02:36:43.739Z,41.60
2022-11-09T02:39:19.159Z,42.17
2022-11-09T02:42:04.466Z,38.73
2022-11-09T02:44:40.835Z,43.23
2022-11-09T02:47:08.959Z,45.73
2022-11-09T02:49:36.748Z,44.03
2022-11-09T02:52:04.420Z,45.67
2022-11-09T02:54:32.389Z,43.10
2022-11-09T02:57:00.551Z,40.13
2022-11-09T02:59:28.994Z,45.33
2022-11-09T03:01:56.493Z,41.00
2022-11-09T03:04:24.308Z,45.70
2022-11-09T03:06:52.754Z,46.80
2022-11-09T03:09:20.838Z,44.73
2022-11-09T03:11:48.231Z,41.67
2022-11-09T03:14:17.204Z,41.93
2022-11-09T03:16:50.890Z,38.03
2022-11-09T03:19:19.290Z,43.23
2022-11-09T03:21:49.181Z,47.30
2022-11-09T03:24:16.715Z,46.63
2022-11-09T03:26:44.088Z,42.57
2022-11-09T03:29:11.833Z,41.70
2022-11-09T03:31:39.916Z,40.70
2022-11-09T03:34:10.036Z,40.80
2022-11-09T03:36:37.406Z,41.93
2022-11-09T03:39:04.997Z,43.60
2022-11-09T03:41:33.385Z,39.70
2022-11-09T03:44:02.589Z,43.73
2022-11-09T03:46:29.913Z,38.23
2022-11-09T03:48:57.507Z,41.97
2022-11-09T03:51:24.787Z,42.90
2022-11-09T03:53:52.548Z,44.70
2022-11-09T03:56:19.879Z,44.43
2022-11-09T03:58:47.515Z,43.60
2022-11-09T04:01:15.336Z,44.20
2022-11-09T04:03:43.011Z,42.73
2022-11-09T04:06:10.286Z,45.07
2022-11-09T04:08:37.979Z,44.27
2022-11-09T04:11:05.591Z,48.20
2022-11-09T04:13:33.293Z,44.17
2022-11-09T04:16:00.629Z,40.47
2022-11-09T04:18:28.297Z,41.50
2022-11-09T04:20:58.909Z,42.47
2022-11-09T04:23:26.480Z,40.30
2022-11-09T04:25:53.983Z,41.93
2022-11-09T04:28:21.767Z,40.73
2022-11-09T04:30:49.062Z,44.53
2022-11-09T04:33:17.582Z,41.47
2022-11-09T04:35:45.162Z,43.40
2022-11-09T04:38:14.405Z,46.57
2022-11-09T04:40:42.125Z,50.87
2022-11-09T04:43:13.745Z,43.27
2022-11-09T04:45:42.130Z,44.80
2022-11-09T04:48:11.384Z,38.30
2022-11-09T04:50:38.862Z,43.77
2022-11-09T04:53:11.511Z,43.33
2022-11-09T04:55:39.739Z,44.63
2022-11-09T04:58:07.751Z,46.70
2022-11-09T05:00:35.762Z,47.73
2022-11-09T05:03:05.538Z,44.03
2022-11-09T05:05:37.955Z,44.43
2022-11-09T05:08:06.499Z,47.13
2022-11-09T05:10:34.358Z,43.90
2022-11-09T05:13:04.947Z,56.67
2022-11-09T05:15:33.021Z,43.30
2022-11-09T05:18:01.981Z,44.57
2022-11-09T05:20:29.955Z,46.40
2022-11-09T05:23:18.073Z,46.77
2022-11-09T05:25:46.224Z,47.23
2022-11-09T05:28:15.360Z,51.23
2022-11-09T05:30:43.438Z,50.23
2022-11-09T05:33:12.281Z,47.47
2022-11-09T05:35:39.803Z,39.67
2022-11-09T05:38:07.543Z,45.50
2022-11-09T05:40:34.996Z,45.77
2022-11-09T05:43:02.612Z,46.27
2022-11-09T05:45:42.504Z,55.43
2022-11-09T05:48:12.370Z,52.80
2022-11-09T05:50:39.980Z,45.70
2022-11-09T05:53:15.061Z,47.37
2022-11-09T05:55:42.614Z,51.37
2022-11-09T05:58:10.733Z,45.27
2022-11-09T06:00:38.323Z,51.00
2022-11-09T06:03:08.839Z,53.20
2022-11-09T06:05:38.273Z,51.90
2022-11-09T06:08:08.420Z,45.33
2022-11-09T06:10:36.219Z,52.83
2022-11-09T06:13:04.207Z,49.63
2022-11-09T06:15:31.922Z,52.90
2022-11-09T06:18:00.609Z,50.87
2022-11-09T06:20:28.812Z,47.43
2022-11-09T06:23:03.749Z,51.10
2022-11-09T06:25:33.408Z,50.00
2022-11-09T06:28:01.912Z,50.67
2022-11-09T06:30:29.798Z,52.10
2022-11-09T06:33:02.076Z,46.77
2022-11-09T06:35:30.143Z,48.57
2022-11-09T06:38:01.552Z,52.40
2022-11-09T06:40:29.552Z,55.10
2022-11-09T06:43:01.126Z,49.53
2022-11-09T06:45:30.234Z,48.17
2022-11-09T06:48:03.840Z,53.20
2022-11-09T06:50:33.328Z,46.73
2022-11-09T06:53:04.218Z,51.23
2022-11-09T06:55:33.225Z,49.80
2022-11-09T06:58:05.029Z,58.90
2022-11-09T07:00:32.437Z,72.03
2022-11-09T07:03:00.104Z,55.77
2022-11-09T07:05:27.419Z,49.30
2022-11-09T07:07:55.053Z,55.47
2022-11-09T07:10:22.322Z,52.77
2022-11-09T07:12:49.873Z,51.47
2022-11-09T07:15:18.653Z,49.63
2022-11-09T07:17:46.523Z,57.80
2022-11-09T07:20:15.039Z,49.37
2022-11-09T07:22:42.927Z,47.33
2022-11-09T07:25:12.866Z,48.77
2022-11-09T07:27:40.550Z,45.27
2022-11-09T07:30:08.358Z,52.93
2022-11-09T07:35:24.277Z,46.27
2022-11-09T07:37:51.895Z,51.13
2022-11-09T07:40:19.909Z,49.93
2022-11-09T07:42:47.514Z,52.67
2022-11-09T07:45:15.747Z,47.90
2022-11-09T07:47:43.590Z,45.97
2022-11-09T07:50:10.938Z,47.50
2022-11-09T07:52:38.492Z,43.87
2022-11-09T07:55:06.301Z,44.70
2022-11-09T07:57:34.105Z,47.37
2022-11-09T08:00:01.514Z,45.17
2022-11-09T08:02:39.086Z,42.37
2022-11-09T08:05:07.044Z,45.37
2022-11-09T08:07:34.682Z,48.70
2022-11-09T08:10:01.963Z,49.27
2022-11-09T08:12:32.962Z,43.67
2022-11-09T08:15:05.470Z,39.90
2022-11-09T08:17:33.310Z,45.10
2022-11-09T08:20:00.572Z,38.87
2022-11-09T08:22:28.244Z,42.47
2022-11-09T08:24:55.550Z,40.20
2022-11-09T08:27:23.554Z,42.43
2022-11-09T08:29:51.099Z,39.80
2022-11-09T08:32:18.761Z,41.00
2022-11-09T08:34:49.172Z,43.93
2022-11-09T08:37:17.147Z,37.93
2022-11-09T08:39:44.489Z,35.13
2022-11-09T08:42:12.106Z,39.57
2022-11-09T08:44:39.368Z,39.53
2022-11-09T08:47:06.985Z,38.93
2022-11-09T08:49:34.942Z,38.93
2022-11-09T08:52:02.567Z,40.20
2022-11-09T08:54:29.940Z,45.10
2022-11-09T08:56:57.853Z,43.90
2022-11-09T08:59:25.509Z,35.63
2022-11-09T09:01:53.131Z,34.43
2022-11-09T09:04:20.578Z,38.40
2022-11-09T09:06:48.164Z,41.67
2022-11-09T09:09:15.584Z,40.43
2022-11-09T09:11:43.081Z,38.37
2022-11-09T09:14:10.376Z,38.50
2022-11-09T09:16:38.176Z,35.53
2022-11-09T09:19:05.607Z,38.53
2022-11-09T09:21:33.155Z,40.63
2022-11-09T09:24:00.422Z,39.57
2022-11-09T09:26:28.041Z,40.10
2022-11-09T09:28:55.393Z,38.63
2022-11-09T09:31:23.306Z,33.73
2022-11-09T09:33:50.839Z,37.97
2022-11-09T09:36:21.282Z,37.57
2022-11-09T09:38:53.134Z,35.27
2022-11-09T09:41:27.514Z,37.27
2022-11-09T09:43:59.617Z,32.60
2022-11-09T09:46:47.732Z,35.03
2022-11-09T09:49:25.752Z,34.90
2022-11-09T09:52:17.797Z,33.20
2022-11-09T09:55:09.071Z,31.33
2022-11-09T09:57:41.659Z,31.87
2022-11-09T10:00:21.882Z,35.37
2022-11-09T10:02:51.009Z,34.80
2022-11-09T10:05:20.173Z,33.20
2022-11-09T10:08:05.858Z,34.25
2022-11-09T10:10:46.486Z,32.93
2022-11-09T10:13:17.186Z,28.35
2022-11-09T10:15:55.751Z,31.42
2022-11-09T10:19:01.462Z,31.45
2022-11-09T10:21:35.690Z,29.88
2022-11-09T10:24:11.860Z,26.83
2022-11-09T10:26:52.090Z,31.42
2022-11-09T10:29:25.771Z,29.98
2022-11-09T10:32:13.034Z,32.78
2022-11-09T10:34:56.769Z,30.52
2022-11-09T10:37:34.883Z,30.50
2022-11-09T10:40:06.162Z,32.35
2022-11-09T10:43:00.790Z,32.33
2022-11-09T10:46:05.345Z,31.73
2022-11-09T10:48:54.283Z,30.67
2022-11-09T10:51:47.784Z,35.07
2022-11-09T10:54:38.809Z,32.20
2022-11-09T10:57:27.340Z,30.07
2022-11-09T11:00:18.352Z,30.17
2022-11-09T11:03:27.117Z,36.03
2022-11-09T11:06:24.537Z,35.03
2022-11-09T11:09:13.691Z,32.63
2022-11-09T11:12:16.957Z,38.60
2022-11-09T11:15:15.874Z,34.53
2022-11-09T11:18:05.813Z,36.10
2022-11-09T11:21:18.624Z,33.23
2022-11-09T11:24:16.657Z,29.27
2022-11-09T11:27:21.686Z,31.40
2022-11-09T11:30:11.920Z,28.37
2022-11-09T11:32:59.014Z,31.73
2022-11-09T11:36:16.882Z,33.93
2022-11-09T11:39:35.278Z,32.43
2022-11-09T11:42:36.618Z,33.60
2022-11-09T11:45:40.635Z,35.60
2022-11-09T11:48:34.286Z,31.10
2022-11-09T11:51:54.651Z,35.40
2022-11-09T11:54:50.824Z,32.40
2022-11-09T11:57:56.845Z,32.83
2022-11-09T12:00:56.620Z,30.43
2022-11-09T12:03:52.022Z,29.70
2022-11-09T12:07:01.716Z,34.93
2022-11-09T12:10:00.378Z,31.07
2022-11-09T12:12:53.228Z,32.50
2022-11-09T12:15:47.307Z,35.07
2022-11-09T12:18:38.166Z,33.67
2022-11-09T12:21:46.955Z,36.70
2022-11-09T12:24:53.423Z,37.40
2022-11-09T12:28:17.060Z,42.07
2022-11-09T12:31:26.340Z,38.97
2022-11-09T12:34:48.394Z,35.93
2022-11-09T12:37:39.361Z,37.37
2022-11-09T12:40:27.475Z,41.27
2022-11-09T12:43:20.167Z,40.27
2022-11-09T12:46:07.713Z,36.10
2022-11-09T12:48:55.137Z,37.73
2022-11-09T12:51:41.652Z,34.60
2022-11-09T12:54:28.403Z,38.67
2022-11-09T12:57:26.195Z,37.97
2022-11-09T13:00:32.234Z,38.87
2022-11-09T13:03:52.916Z,36.20
2022-11-09T13:06:38.842Z,36.27
2022-11-09T13:09:32.536Z,37.60
2022-11-09T13:12:40.522Z,33.83
2022-11-09T13:15:28.805Z,44.53
2022-11-09T13:18:26.200Z,35.10
2022-11-09T13:21:21.572Z,32.20
2022-11-09T13:24:49.947Z,37.57
2022-11-09T13:27:54.699Z,35.93
2022-11-09T13:30:42.844Z,37.57
2022-11-09T13:33:30.263Z,39.50
2022-11-09T13:36:19.957Z,35.23
2022-11-09T13:39:33.085Z,38.00
2022-11-09T13:42:30.272Z,37.07
2022-11-09T13:45:46.720Z,39.47
2022-11-09T13:48:35.710Z,37.23
2022-11-09T13:51:23.027Z,39.00
2022-11-09T13:54:34.994Z,38.63
2022-11-09T13:57:24.014Z,34.60
2022-11-09T14:00:23.935Z,41.77
2022-11-09T14:03:24.544Z,49.43
2022-11-09T14:06:13.916Z,39.43
2022-11-09T14:09:01.440Z,43.30
2022-11-09T14:12:26.515Z,41.70
2022-11-09T14:15:44.964Z,41.27
2022-11-09T14:18:51.057Z,52.83
2022-11-09T14:21:47.465Z,43.43
2022-11-09T14:24:38.313Z,36.47
2022-11-09T14:27:24.480Z,44.83
2022-11-09T14:30:22.620Z,41.00
2022-11-09T14:33:24.780Z,36.97
2022-11-09T14:36:13.108Z,40.80
2022-11-09T14:39:05.370Z,47.53
2022-11-09T14:41:52.774Z,38.33
2022-11-09T14:44:44.438Z,46.27
2022-11-09T14:47:34.445Z,46.23
2022-11-09T14:50:37.149Z,39.67
2022-11-09T14:53:30.424Z,39.47
2022-11-09T14:56:19.885Z,41.23
2022-11-09T14:59:08.348Z,44.23
2022-11-09T15:02:15.518Z,49.50
2022-11-09T15:05:05.087Z,45.93
2022-11-09T15:07:51.104Z,45.90
2022-11-09T15:10:38.612Z,47.97
2022-11-09T15:13:36.569Z,50.17
2022-11-09T15:16:31.281Z,47.53
2022-11-09T15:19:21.481Z,64.23
2022-11-09T15:22:47.855Z,60.50
2022-11-09T15:25:52.518Z,59.53
2022-11-09T15:28:49.301Z,56.37
2022-11-09T15:31:37.574Z,56.67
2022-11-09T15:34:37.273Z,60.87
2022-11-09T15:37:40.534Z,58.30
2022-11-09T15:40:29.237Z,57.43
2022-11-09T15:43:17.309Z,53.83
2022-11-09T15:46:07.277Z,57.80
2022-11-09T15:49:00.492Z,56.30
2022-11-09T15:51:48.159Z,56.83
2022-11-09T15:54:38.729Z,55.20
2022-11-09T15:57:28.803Z,56.57
2022-11-09T16:00:20.733Z,50.53
2022-11-09T16:03:08.747Z,51.30
2022-11-09T16:05:54.744Z,57.33
2022-11-09T16:08:41.571Z,51.63
2022-11-09T16:11:27.899Z,52.60
2022-11-09T16:14:15.089Z,52.57
2022-11-09T16:17:01.124Z,52.30
2022-11-09T16:19:47.863Z,53.43
2022-11-09T16:22:34.218Z,52.23
2022-11-09T16:25:21.276Z,52.43
2022-11-09T16:28:08.780Z,54.20
2022-11-09T16:30:57.339Z,54.40
2022-11-09T16:33:46.272Z,53.87
2022-11-09T16:36:35.624Z,56.20
2022-11-09T16:39:26.235Z,51.83
2022-11-09T16:42:16.624Z,46.13
2022-11-09T16:45:14.156Z,52.10
2022-11-09T16:48:05.264Z,56.13
2022-11-09T16:50:55.696Z,51.47
2022-11-09T16:53:43.912Z,54.37
2022-11-09T16:56:30.484Z,47.13
2022-11-09T16:59:20.900Z,58.50
2022-11-09T17:02:07.274Z,52.47
2022-11-09T17:04:54.518Z,47.73
2022-11-09T17:07:42.790Z,48.33
2022-11-09T17:10:29.042Z,49.77
2022-11-09T17:13:15.328Z,56.77
2022-11-09T17:16:06.655Z,46.97
2022-11-09T17:18:54.720Z,56.80
2022-11-09T17:21:41.100Z,55.13
2022-11-09T17:24:28.480Z,81.20
2022-11-09T17:27:15.206Z,59.80
2022-11-09T17:30:01.344Z,62.57
2022-11-09T17:32:48.751Z,63.37
2022-11-09T17:35:36.935Z,62.80
2022-11-09T17:38:23.495Z,69.53
2022-11-09T17:41:11.803Z,66.87
2022-11-09T17:44:02.478Z,59.50
2022-11-09T17:46:49.476Z,64.20
2022-11-09T17:49:36.322Z,60.83
2022-11-09T17:52:22.659Z,63.93
2022-11-09T17:55:09.637Z,61.73
2022-11-09T17:57:56.880Z,59.17
2022-11-09T18:00:44.565Z,66.93
2022-11-09T18:03:36.515Z,72.70
2022-11-09T18:06:25.031Z,68.13
2022-11-09T18:09:39.678Z,64.93
2022-11-09T18:12:19.093Z,67.43
2022-11-09T18:15:06.485Z,74.07
2022-11-09T18:17:52.784Z,72.30
2022-11-09T18:20:41.552Z,71.50
2022-11-09T18:23:28.804Z,72.83
2022-11-09T18:26:15.733Z,68.37
2022-11-09T18:29:03.251Z,71.63
2022-11-09T18:31:49.978Z,74.93
2022-11-09T18:34:36.281Z,85.73
2022-11-09T18:37:23.239Z,82.67
2022-11-09T18:40:11.183Z,74.87
2022-11-09T18:42:57.075Z,71.60
2022-11-09T18:45:53.655Z,70.93
2022-11-09T18:48:41.628Z,78.17
2022-11-09T18:51:30.906Z,73.30
2022-11-09T18:54:18.778Z,69.37
2022-11-09T18:57:06.039Z,75.47
2022-11-09T18:59:52.540Z,70.00
2022-11-09T19:02:39.929Z,73.30
2022-11-09T19:05:27.250Z,74.00
2022-11-09T19:08:14.246Z,82.30
2022-11-09T19:11:05.684Z,75.47
2022-11-09T19:13:52.871Z,72.83
2022-11-09T19:16:40.592Z,68.73
2022-11-09T19:19:28.505Z,70.43
2022-11-09T19:22:17.885Z,75.47
2022-11-09T19:25:04.685Z,76.57
2022-11-09T19:27:51.111Z,79.73
2022-11-09T19:30:37.208Z,72.23
2022-11-09T19:33:23.522Z,81.83
2022-11-09T19:39:17.086Z,78.97
2022-11-09T19:42:04.417Z,71.73
2022-11-09T19:44:56.064Z,72.97
2022-11-09T19:47:43.121Z,78.10
2022-11-09T19:50:29.123Z,76.83
2022-11-09T19:53:15.713Z,74.57
2022-11-09T19:56:04.827Z,79.00
2022-11-09T19:58:58.159Z,78.43
2022-11-09T20:01:46.037Z,75.57
2022-11-09T20:04:33.590Z,73.60
2022-11-09T20:07:20.232Z,76.77
2022-11-09T20:10:08.945Z,74.07
2022-11-09T20:12:57.021Z,78.07
2022-11-09T20:15:43.408Z,76.83
2022-11-09T20:18:29.690Z,75.33
2022-11-09T20:21:16.218Z,77.70
2022-11-09T20:24:02.574Z,75.67
2022-11-09T20:26:49.567Z,84.80
2022-11-09T20:29:35.467Z,74.93
2022-11-09T20:32:23.775Z,79.43
2022-11-09T20:35:10.174Z,78.03
2022-11-09T20:37:57.453Z,79.13
2022-11-09T20:40:43.865Z,80.80
2022-11-09T20:43:30.438Z,80.27
2022-11-09T20:46:20.698Z,83.73
2022-11-09T20:49:07.337Z,80.07
2022-11-09T20:51:53.905Z,76.47
2022-11-09T20:54:40.357Z,82.23
2022-11-09T20:57:27.185Z,78.60
2022-11-09T21:00:14.781Z,78.83
2022-11-09T21:03:00.751Z,81.03
2022-11-09T21:05:51.051Z,82.43
2022-11-09T21:08:39.943Z,78.07
2022-11-09T21:11:28.886Z,80.40
2022-11-09T21:14:15.073Z,77.47
2022-11-09T21:17:02.100Z,81.17
2022-11-09T21:19:48.138Z,89.87
2022-11-09T21:23:06.316Z,83.90
2022-11-09T21:26:10.612Z,86.73
2022-11-09T21:29:15.856Z,81.60
2022-11-09T21:32:02.593Z,81.13
2022-11-09T21:34:50.509Z,78.13
2022-11-09T21:37:36.452Z,77.20
2022-11-09T21:40:24.999Z,79.27
2022-11-09T21:43:11.445Z,84.73
2022-11-09T21:45:58.658Z,82.50
2022-11-09T21:48:44.723Z,83.43
2022-11-09T21:51:34.389Z,86.27
2022-11-09T21:54:21.339Z,84.50
2022-11-09T21:57:08.497Z,82.33
2022-11-09T21:59:54.287Z,87.90
2022-11-09T22:02:40.745Z,82.00
2022-11-09T22:05:26.709Z,90.33
2022-11-09T22:08:13.124Z,81.93
2022-11-09T22:11:12.013Z,83.07
2022-11-09T22:14:16.806Z,78.43
2022-11-09T22:17:04.278Z,77.00
2022-11-09T22:20:09.536Z,84.40
2022-11-09T22:22:55.314Z,83.73
2022-11-09T22:25:46.766Z,82.37
2022-11-09T22:28:34.037Z,88.07
2022-11-09T22:31:20.425Z,89.17
2022-11-09T22:34:06.053Z,78.33
2022-11-09T22:36:52.355Z,79.63
2022-11-09T22:39:40.691Z,84.17
2022-11-09T22:42:30.497Z,83.57
2022-11-09T22:45:16.446Z,81.10
2022-11-09T22:48:02.862Z,86.87
2022-11-09T22:50:48.884Z,84.07
2022-11-09T22:53:35.129Z,81.40
2022-11-09T22:56:21.288Z,92.13
2022-11-09T22:59:08.037Z,91.40
2022-11-09T23:01:54.364Z,90.63
2022-11-09T23:04:40.487Z,87.23
2022-11-09T23:07:26.322Z,84.97
2022-11-09T23:10:12.212Z,75.97
2022-11-09T23:12:59.486Z,89.43
2022-11-09T23:15:57.930Z,79.57
2022-11-09T23:18:56.085Z,78.37
2022-11-09T23:21:42.646Z,82.10
2022-11-09T23:24:47.294Z,77.67
2022-11-09T23:27:33.638Z,75.20
2022-11-09T23:30:20.323Z,91.37
2022-11-09T23:33:06.603Z,77.37
2022-11-09T23:35:52.330Z,77.80
2022-11-09T23:38:39.586Z,74.40
2022-11-09T23:41:25.802Z,69.90
2022-11-09T23:44:12.009Z,76.60
2022-11-09T23:46:58.066Z,77.67
2022-11-09T23:49:44.554Z,71.70
2022-11-09T23:52:30.422Z,70.53
2022-11-09T23:55:16.903Z,73.97
2022-11-09T23:58:03.791Z,69.00
